Terminal Aerodrome Forecast
Issued by NWS Rapid City, SD

Home | Current Version | Previous Version | Graphics & Text | Print | Product List | Glossary On
Versions: 1 2 3 4 5 6 7 8 9 10 11 12 13 14 15
044
FTUS43 KUNR 201120
TAFRAP
TAF
KRAP 201120Z 2012/2112 01010KT P6SM SCT150
     FM202100 13014KT P6SM SCT080
     FM210200 15010KT P6SM VCTS BKN070CB=

USA.gov is the U.S. government's official web portal to all federal, state and local government web resources and services.